sensor_id;sensor_type;location;lat;lon;timestamp;P1;durP1;ratioP1;P2;durP2;ratioP2
12181;SDS011;6154;51.550;12.138;2023-11-19T00:01:18;1.67;;;1.42;;
12181;SDS011;6154;51.550;12.138;2023-11-19T00:03:47;3.15;;;2.03;;
12181;SDS011;6154;51.550;12.138;2023-11-19T00:06:17;5.05;;;1.77;;
12181;SDS011;6154;51.550;12.138;2023-11-19T00:08:45;2.00;;;1.30;;
12181;SDS011;6154;51.550;12.138;2023-11-19T00:11:13;1.40;;;1.30;;
12181;SDS011;6154;51.550;12.138;2023-11-19T00:13:42;1.30;;;0.98;;
12181;SDS011;6154;51.550;12.138;2023-11-19T00:16:10;1.12;;;1.05;;
12181;SDS011;6154;51.550;12.138;2023-11-19T00:18:40;3.42;;;1.30;;
12181;SDS011;6154;51.550;12.138;2023-11-19T00:21:08;3.60;;;1.15;;
12181;SDS011;6154;51.550;12.138;2023-11-19T00:23:37;1.10;;;0.95;;
12181;SDS011;6154;51.550;12.138;2023-11-19T00:26:05;1.37;;;1.20;;
12181;SDS011;6154;51.550;12.138;2023-11-19T00:28:36;0.85;;;0.80;;
12181;SDS011;6154;51.550;12.138;2023-11-19T00:31:05;2.22;;;1.30;;
12181;SDS011;6154;51.550;12.138;2023-11-19T00:33:34;1.02;;;1.00;;
12181;SDS011;6154;51.550;12.138;2023-11-19T00:36:16;1.25;;;0.98;;
12181;SDS011;6154;51.550;12.138;2023-11-19T00:38:44;1.10;;;0.95;;
12181;SDS011;6154;51.550;12.138;2023-11-19T00:41:12;2.15;;;1.05;;
12181;SDS011;6154;51.550;12.138;2023-11-19T00:43:42;0.62;;;0.52;;
12181;SDS011;6154;51.550;12.138;2023-11-19T00:46:10;1.58;;;1.10;;
12181;SDS011;6154;51.550;12.138;2023-11-19T00:48:40;0.75;;;0.47;;
12181;SDS011;6154;51.550;12.138;2023-11-19T00:51:11;1.75;;;0.90;;
12181;SDS011;6154;51.550;12.138;2023-11-19T00:53:40;0.70;;;0.50;;
12181;SDS011;6154;51.550;12.138;2023-11-19T00:56:10;1.15;;;0.75;;
12181;SDS011;6154;51.550;12.138;2023-11-19T00:58:39;0.70;;;0.70;;
12181;SDS011;6154;51.550;12.138;2023-11-19T01:01:09;0.50;;;0.50;;
12181;SDS011;6154;51.550;12.138;2023-11-19T01:03:38;0.95;;;0.90;;
12181;SDS011;6154;51.550;12.138;2023-11-19T01:06:10;1.35;;;1.02;;
12181;SDS011;6154;51.550;12.138;2023-11-19T01:08:56;0.85;;;0.70;;
12181;SDS011;6154;51.550;12.138;2023-11-19T01:11:28;1.25;;;0.65;;
12181;SDS011;6154;51.550;12.138;2023-11-19T01:14:00;1.23;;;0.70;;
12181;SDS011;6154;51.550;12.138;2023-11-19T01:16:29;0.52;;;0.52;;
12181;SDS011;6154;51.550;12.138;2023-11-19T01:18:58;0.98;;;0.60;;
12181;SDS011;6154;51.550;12.138;2023-11-19T01:21:44;0.62;;;0.52;;
12181;SDS011;6154;51.550;12.138;2023-11-19T01:24:14;0.98;;;0.60;;
12181;SDS011;6154;51.550;12.138;2023-11-19T01:26:43;0.70;;;0.55;;
12181;SDS011;6154;51.550;12.138;2023-11-19T01:29:12;1.02;;;0.88;;
12181;SDS011;6154;51.550;12.138;2023-11-19T01:31:45;1.55;;;1.08;;
12181;SDS011;6154;51.550;12.138;2023-11-19T01:34:13;1.20;;;1.00;;
12181;SDS011;6154;51.550;12.138;2023-11-19T01:36:42;0.70;;;0.70;;
12181;SDS011;6154;51.550;12.138;2023-11-19T01:39:10;0.82;;;0.60;;
12181;SDS011;6154;51.550;12.138;2023-11-19T01:41:39;1.05;;;0.82;;
12181;SDS011;6154;51.550;12.138;2023-11-19T01:44:08;0.95;;;0.77;;
12181;SDS011;6154;51.550;12.138;2023-11-19T01:46:37;0.75;;;0.75;;
12181;SDS011;6154;51.550;12.138;2023-11-19T01:49:06;1.30;;;0.82;;
12181;SDS011;6154;51.550;12.138;2023-11-19T01:51:35;1.92;;;1.00;;
12181;SDS011;6154;51.550;12.138;2023-11-19T01:54:04;0.65;;;0.52;;
12181;SDS011;6154;51.550;12.138;2023-11-19T01:56:32;1.00;;;0.80;;
12181;SDS011;6154;51.550;12.138;2023-11-19T01:59:08;0.60;;;0.60;;
12181;SDS011;6154;51.550;12.138;2023-11-19T02:01:39;1.10;;;0.60;;
12181;SDS011;6154;51.550;12.138;2023-11-19T02:04:10;0.85;;;0.80;;
12181;SDS011;6154;51.550;12.138;2023-11-19T02:06:41;0.60;;;0.57;;
12181;SDS011;6154;51.550;12.138;2023-11-19T02:09:21;0.62;;;0.62;;
12181;SDS011;6154;51.550;12.138;2023-11-19T02:11:49;0.73;;;0.55;;
12181;SDS011;6154;51.550;12.138;2023-11-19T02:14:19;0.47;;;0.40;;
12181;SDS011;6154;51.550;12.138;2023-11-19T02:16:54;0.60;;;0.60;;
12181;SDS011;6154;51.550;12.138;2023-11-19T02:19:22;1.23;;;0.65;;
12181;SDS011;6154;51.550;12.138;2023-11-19T02:21:51;2.67;;;0.75;;
12181;SDS011;6154;51.550;12.138;2023-11-19T02:24:20;0.70;;;0.70;;
12181;SDS011;6154;51.550;12.138;2023-11-19T02:26:52;0.80;;;0.60;;
12181;SDS011;6154;51.550;12.138;2023-11-19T02:29:28;0.52;;;0.50;;
12181;SDS011;6154;51.550;12.138;2023-11-19T02:31:56;1.17;;;0.80;;
12181;SDS011;6154;51.550;12.138;2023-11-19T02:34:24;0.75;;;0.57;;
12181;SDS011;6154;51.550;12.138;2023-11-19T02:36:53;0.85;;;0.55;;
12181;SDS011;6154;51.550;12.138;2023-11-19T02:39:21;0.60;;;0.60;;
12181;SDS011;6154;51.550;12.138;2023-11-19T02:41:50;0.55;;;0.55;;
12181;SDS011;6154;51.550;12.138;2023-11-19T02:44:19;0.68;;;0.68;;
12181;SDS011;6154;51.550;12.138;2023-11-19T02:46:49;0.80;;;0.70;;
12181;SDS011;6154;51.550;12.138;2023-11-19T02:49:17;0.55;;;0.50;;
12181;SDS011;6154;51.550;12.138;2023-11-19T02:51:45;0.68;;;0.68;;
12181;SDS011;6154;51.550;12.138;2023-11-19T02:54:13;0.70;;;0.50;;
12181;SDS011;6154;51.550;12.138;2023-11-19T02:56:42;0.70;;;0.50;;
12181;SDS011;6154;51.550;12.138;2023-11-19T02:59:10;1.42;;;0.82;;
12181;SDS011;6154;51.550;12.138;2023-11-19T03:01:54;0.50;;;0.50;;
12181;SDS011;6154;51.550;12.138;2023-11-19T03:04:23;0.55;;;0.55;;
12181;SDS011;6154;51.550;12.138;2023-11-19T03:06:51;1.40;;;0.82;;
12181;SDS011;6154;51.550;12.138;2023-11-19T03:09:20;0.32;;;0.30;;
12181;SDS011;6154;51.550;12.138;2023-11-19T03:11:48;0.95;;;0.45;;
12181;SDS011;6154;51.550;12.138;2023-11-19T03:14:16;0.98;;;0.70;;
12181;SDS011;6154;51.550;12.138;2023-11-19T03:16:45;0.20;;;0.20;;
12181;SDS011;6154;51.550;12.138;2023-11-19T03:19:15;0.40;;;0.40;;
12181;SDS011;6154;51.550;12.138;2023-11-19T03:21:52;0.50;;;0.50;;
12181;SDS011;6154;51.550;12.138;2023-11-19T03:24:21;0.17;;;0.17;;
12181;SDS011;6154;51.550;12.138;2023-11-19T03:26:49;0.62;;;0.52;;
12181;SDS011;6154;51.550;12.138;2023-11-19T03:29:17;0.40;;;0.40;;
12181;SDS011;6154;51.550;12.138;2023-11-19T03:31:46;0.55;;;0.40;;
12181;SDS011;6154;51.550;12.138;2023-11-19T03:34:14;0.55;;;0.40;;
12181;SDS011;6154;51.550;12.138;2023-11-19T03:36:43;0.95;;;0.30;;
12181;SDS011;6154;51.550;12.138;2023-11-19T03:39:12;0.32;;;0.32;;
12181;SDS011;6154;51.550;12.138;2023-11-19T03:41:40;0.75;;;0.22;;
12181;SDS011;6154;51.550;12.138;2023-11-19T03:44:08;0.30;;;0.30;;
12181;SDS011;6154;51.550;12.138;2023-11-19T03:46:36;1.35;;;0.20;;
12181;SDS011;6154;51.550;12.138;2023-11-19T03:49:08;0.22;;;0.22;;
12181;SDS011;6154;51.550;12.138;2023-11-19T03:51:38;0.37;;;0.20;;
12181;SDS011;6154;51.550;12.138;2023-11-19T03:54:07;0.30;;;0.20;;
12181;SDS011;6154;51.550;12.138;2023-11-19T03:56:35;0.30;;;0.25;;
12181;SDS011;6154;51.550;12.138;2023-11-19T03:59:04;0.20;;;0.20;;
12181;SDS011;6154;51.550;12.138;2023-11-19T04:01:32;1.10;;;0.37;;
12181;SDS011;6154;51.550;12.138;2023-11-19T04:04:00;0.47;;;0.25;;
12181;SDS011;6154;51.550;12.138;2023-11-19T04:06:29;0.90;;;0.50;;
12181;SDS011;6154;51.550;12.138;2023-11-19T04:08:58;0.30;;;0.30;;
12181;SDS011;6154;51.550;12.138;2023-11-19T04:11:26;0.43;;;0.20;;
12181;SDS011;6154;51.550;12.138;2023-11-19T04:13:54;1.25;;;0.57;;
12181;SDS011;6154;51.550;12.138;2023-11-19T04:16:25;0.25;;;0.25;;
12181;SDS011;6154;51.550;12.138;2023-11-19T04:18:55;0.43;;;0.32;;
12181;SDS011;6154;51.550;12.138;2023-11-19T04:21:23;1.08;;;0.50;;
12181;SDS011;6154;51.550;12.138;2023-11-19T04:23:52;0.93;;;0.57;;
12181;SDS011;6154;51.550;12.138;2023-11-19T04:26:21;0.35;;;0.35;;
12181;SDS011;6154;51.550;12.138;2023-11-19T04:28:50;0.40;;;0.40;;
12181;SDS011;6154;51.550;12.138;2023-11-19T04:31:19;0.20;;;0.15;;
12181;SDS011;6154;51.550;12.138;2023-11-19T04:33:47;0.30;;;0.30;;
12181;SDS011;6154;51.550;12.138;2023-11-19T04:36:18;0.30;;;0.30;;
12181;SDS011;6154;51.550;12.138;2023-11-19T04:38:46;0.22;;;0.22;;
12181;SDS011;6154;51.550;12.138;2023-11-19T04:41:14;1.15;;;0.40;;
12181;SDS011;6154;51.550;12.138;2023-11-19T04:43:44;0.65;;;0.52;;
12181;SDS011;6154;51.550;12.138;2023-11-19T04:46:12;1.10;;;0.62;;
12181;SDS011;6154;51.550;12.138;2023-11-19T04:48:40;0.35;;;0.30;;
12181;SDS011;6154;51.550;12.138;2023-11-19T04:51:08;0.50;;;0.50;;
12181;SDS011;6154;51.550;12.138;2023-11-19T04:53:37;0.30;;;0.30;;
12181;SDS011;6154;51.550;12.138;2023-11-19T04:56:08;0.28;;;0.28;;
12181;SDS011;6154;51.550;12.138;2023-11-19T04:58:37;2.45;;;0.28;;
12181;SDS011;6154;51.550;12.138;2023-11-19T05:01:13;0.20;;;0.20;;
12181;SDS011;6154;51.550;12.138;2023-11-19T05:03:43;0.57;;;0.32;;
12181;SDS011;6154;51.550;12.138;2023-11-19T05:06:12;0.20;;;0.20;;
12181;SDS011;6154;51.550;12.138;2023-11-19T05:08:40;0.43;;;0.30;;
12181;SDS011;6154;51.550;12.138;2023-11-19T05:11:08;0.30;;;0.30;;
12181;SDS011;6154;51.550;12.138;2023-11-19T05:13:38;0.25;;;0.25;;
12181;SDS011;6154;51.550;12.138;2023-11-19T05:16:08;0.35;;;0.35;;
12181;SDS011;6154;51.550;12.138;2023-11-19T05:18:36;0.32;;;0.32;;
12181;SDS011;6154;51.550;12.138;2023-11-19T05:21:07;0.30;;;0.30;;
12181;SDS011;6154;51.550;12.138;2023-11-19T05:23:35;1.20;;;0.32;;
12181;SDS011;6154;51.550;12.138;2023-11-19T05:26:03;0.45;;;0.40;;
12181;SDS011;6154;51.550;12.138;2023-11-19T05:28:34;0.30;;;0.30;;
12181;SDS011;6154;51.550;12.138;2023-11-19T05:31:02;0.20;;;0.20;;
12181;SDS011;6154;51.550;12.138;2023-11-19T05:33:32;0.15;;;0.15;;
12181;SDS011;6154;51.550;12.138;2023-11-19T05:36:01;0.20;;;0.20;;
12181;SDS011;6154;51.550;12.138;2023-11-19T05:38:31;0.20;;;0.20;;
12181;SDS011;6154;51.550;12.138;2023-11-19T05:40:59;0.50;;;0.20;;
12181;SDS011;6154;51.550;12.138;2023-11-19T05:43:27;0.10;;;0.10;;
12181;SDS011;6154;51.550;12.138;2023-11-19T05:45:55;0.20;;;0.20;;
12181;SDS011;6154;51.550;12.138;2023-11-19T05:48:24;0.62;;;0.30;;
12181;SDS011;6154;51.550;12.138;2023-11-19T05:50:55;0.30;;;0.30;;
12181;SDS011;6154;51.550;12.138;2023-11-19T05:53:23;0.20;;;0.20;;
12181;SDS011;6154;51.550;12.138;2023-11-19T05:55:51;0.30;;;0.30;;
12181;SDS011;6154;51.550;12.138;2023-11-19T05:58:23;0.68;;;0.50;;
12181;SDS011;6154;51.550;12.138;2023-11-19T06:00:55;0.20;;;0.20;;
12181;SDS011;6154;51.550;12.138;2023-11-19T06:03:23;0.20;;;0.20;;
12181;SDS011;6154;51.550;12.138;2023-11-19T06:05:51;0.10;;;0.10;;
12181;SDS011;6154;51.550;12.138;2023-11-19T06:08:22;0.60;;;0.10;;
12181;SDS011;6154;51.550;12.138;2023-11-19T06:10:50;0.10;;;0.10;;
12181;SDS011;6154;51.550;12.138;2023-11-19T06:13:18;1.23;;;0.20;;
12181;SDS011;6154;51.550;12.138;2023-11-19T06:15:50;0.13;;;0.13;;
12181;SDS011;6154;51.550;12.138;2023-11-19T06:18:18;0.10;;;0.10;;
12181;SDS011;6154;51.550;12.138;2023-11-19T06:20:47;0.17;;;0.17;;
12181;SDS011;6154;51.550;12.138;2023-11-19T06:23:16;0.10;;;0.10;;
12181;SDS011;6154;51.550;12.138;2023-11-19T06:25:45;0.10;;;0.10;;
12181;SDS011;6154;51.550;12.138;2023-11-19T06:28:14;0.20;;;0.20;;
12181;SDS011;6154;51.550;12.138;2023-11-19T06:30:44;0.10;;;0.10;;
12181;SDS011;6154;51.550;12.138;2023-11-19T06:33:15;0.13;;;0.13;;
12181;SDS011;6154;51.550;12.138;2023-11-19T06:35:43;0.10;;;0.10;;
12181;SDS011;6154;51.550;12.138;2023-11-19T06:38:11;0.20;;;0.20;;
12181;SDS011;6154;51.550;12.138;2023-11-19T06:40:40;0.98;;;0.20;;
12181;SDS011;6154;51.550;12.138;2023-11-19T06:43:10;0.10;;;0.10;;
12181;SDS011;6154;51.550;12.138;2023-11-19T06:45:38;0.13;;;0.10;;
12181;SDS011;6154;51.550;12.138;2023-11-19T06:48:06;0.08;;;0.08;;
12181;SDS011;6154;51.550;12.138;2023-11-19T06:50:34;0.25;;;0.13;;
12181;SDS011;6154;51.550;12.138;2023-11-19T06:53:02;0.28;;;0.10;;
12181;SDS011;6154;51.550;12.138;2023-11-19T06:55:31;0.10;;;0.10;;
12181;SDS011;6154;51.550;12.138;2023-11-19T06:58:00;0.20;;;0.10;;
12181;SDS011;6154;51.550;12.138;2023-11-19T07:00:30;0.10;;;0.10;;
12181;SDS011;6154;51.550;12.138;2023-11-19T07:02:59;0.10;;;0.10;;
12181;SDS011;6154;51.550;12.138;2023-11-19T07:05:28;0.00;;;0.00;;
12181;SDS011;6154;51.550;12.138;2023-11-19T07:07:56;0.40;;;0.20;;
12181;SDS011;6154;51.550;12.138;2023-11-19T07:10:25;0.20;;;0.20;;
12181;SDS011;6154;51.550;12.138;2023-11-19T07:12:53;0.10;;;0.10;;
12181;SDS011;6154;51.550;12.138;2023-11-19T07:15:21;0.28;;;0.13;;
12181;SDS011;6154;51.550;12.138;2023-11-19T07:17:51;0.10;;;0.10;;
12181;SDS011;6154;51.550;12.138;2023-11-19T07:20:23;0.20;;;0.10;;
12181;SDS011;6154;51.550;12.138;2023-11-19T07:22:54;0.10;;;0.10;;
12181;SDS011;6154;51.550;12.138;2023-11-19T07:25:24;0.10;;;0.10;;
12181;SDS011;6154;51.550;12.138;2023-11-19T07:27:53;0.20;;;0.17;;
12181;SDS011;6154;51.550;12.138;2023-11-19T07:30:21;0.20;;;0.20;;
12181;SDS011;6154;51.550;12.138;2023-11-19T07:32:51;0.10;;;0.10;;
12181;SDS011;6154;51.550;12.138;2023-11-19T07:35:20;0.10;;;0.10;;
12181;SDS011;6154;51.550;12.138;2023-11-19T07:37:48;0.10;;;0.10;;
12181;SDS011;6154;51.550;12.138;2023-11-19T07:40:17;0.25;;;0.20;;
12181;SDS011;6154;51.550;12.138;2023-11-19T07:42:45;0.10;;;0.10;;
12181;SDS011;6154;51.550;12.138;2023-11-19T07:45:14;0.10;;;0.10;;
12181;SDS011;6154;51.550;12.138;2023-11-19T07:47:42;0.10;;;0.10;;
12181;SDS011;6154;51.550;12.138;2023-11-19T07:50:12;0.20;;;0.20;;
12181;SDS011;6154;51.550;12.138;2023-11-19T07:52:43;0.10;;;0.10;;
12181;SDS011;6154;51.550;12.138;2023-11-19T07:55:12;0.68;;;0.25;;
12181;SDS011;6154;51.550;12.138;2023-11-19T07:57:40;0.28;;;0.20;;
12181;SDS011;6154;51.550;12.138;2023-11-19T08:00:09;0.50;;;0.20;;
12181;SDS011;6154;51.550;12.138;2023-11-19T08:02:39;0.10;;;0.10;;
12181;SDS011;6154;51.550;12.138;2023-11-19T08:05:08;0.55;;;0.35;;
12181;SDS011;6154;51.550;12.138;2023-11-19T08:07:38;0.32;;;0.20;;
12181;SDS011;6154;51.550;12.138;2023-11-19T08:10:06;0.20;;;0.20;;
12181;SDS011;6154;51.550;12.138;2023-11-19T08:12:36;0.28;;;0.15;;
12181;SDS011;6154;51.550;12.138;2023-11-19T08:15:05;0.15;;;0.10;;
12181;SDS011;6154;51.550;12.138;2023-11-19T08:17:34;0.10;;;0.10;;
12181;SDS011;6154;51.550;12.138;2023-11-19T08:20:02;0.20;;;0.20;;
12181;SDS011;6154;51.550;12.138;2023-11-19T08:22:31;1.90;;;0.52;;
12181;SDS011;6154;51.550;12.138;2023-11-19T08:25:03;0.17;;;0.17;;
12181;SDS011;6154;51.550;12.138;2023-11-19T08:27:32;0.10;;;0.10;;
12181;SDS011;6154;51.550;12.138;2023-11-19T08:30:01;0.10;;;0.10;;
12181;SDS011;6154;51.550;12.138;2023-11-19T08:32:29;0.20;;;0.20;;
12181;SDS011;6154;51.550;12.138;2023-11-19T08:34:57;0.17;;;0.17;;
12181;SDS011;6154;51.550;12.138;2023-11-19T08:37:26;2.08;;;0.22;;
12181;SDS011;6154;51.550;12.138;2023-11-19T08:39:55;5.05;;;0.30;;
12181;SDS011;6154;51.550;12.138;2023-11-19T08:42:25;0.93;;;0.20;;
12181;SDS011;6154;51.550;12.138;2023-11-19T08:44:52;3.10;;;0.20;;
12181;SDS011;6154;51.550;12.138;2023-11-19T08:47:21;2.25;;;0.28;;
12181;SDS011;6154;51.550;12.138;2023-11-19T08:49:50;0.45;;;0.30;;
12181;SDS011;6154;51.550;12.138;2023-11-19T08:52:23;2.62;;;0.32;;
12181;SDS011;6154;51.550;12.138;2023-11-19T08:54:51;1.48;;;0.20;;
12181;SDS011;6154;51.550;12.138;2023-11-19T08:57:19;0.73;;;0.35;;
12181;SDS011;6154;51.550;12.138;2023-11-19T08:59:52;1.95;;;0.20;;
12181;SDS011;6154;51.550;12.138;2023-11-19T09:02:20;0.20;;;0.20;;
12181;SDS011;6154;51.550;12.138;2023-11-19T09:04:48;0.20;;;0.10;;
12181;SDS011;6154;51.550;12.138;2023-11-19T09:07:19;1.05;;;0.20;;
12181;SDS011;6154;51.550;12.138;2023-11-19T09:09:48;0.10;;;0.10;;
12181;SDS011;6154;51.550;12.138;2023-11-19T09:12:16;0.52;;;0.20;;
12181;SDS011;6154;51.550;12.138;2023-11-19T09:14:44;1.00;;;0.10;;
12181;SDS011;6154;51.550;12.138;2023-11-19T09:17:15;0.77;;;0.40;;
12181;SDS011;6154;51.550;12.138;2023-11-19T09:19:44;0.20;;;0.20;;
12181;SDS011;6154;51.550;12.138;2023-11-19T09:22:12;0.10;;;0.10;;
12181;SDS011;6154;51.550;12.138;2023-11-19T09:24:41;0.32;;;0.20;;
12181;SDS011;6154;51.550;12.138;2023-11-19T09:27:10;0.10;;;0.10;;
12181;SDS011;6154;51.550;12.138;2023-11-19T09:29:39;0.52;;;0.30;;
12181;SDS011;6154;51.550;12.138;2023-11-19T09:32:07;0.30;;;0.15;;
12181;SDS011;6154;51.550;12.138;2023-11-19T09:34:36;0.20;;;0.20;;
12181;SDS011;6154;51.550;12.138;2023-11-19T09:37:04;0.22;;;0.22;;
12181;SDS011;6154;51.550;12.138;2023-11-19T09:39:48;0.20;;;0.20;;
12181;SDS011;6154;51.550;12.138;2023-11-19T09:42:16;0.80;;;0.32;;
12181;SDS011;6154;51.550;12.138;2023-11-19T09:44:44;0.10;;;0.10;;
12181;SDS011;6154;51.550;12.138;2023-11-19T09:47:15;1.10;;;0.20;;
12181;SDS011;6154;51.550;12.138;2023-11-19T09:49:47;0.15;;;0.10;;
12181;SDS011;6154;51.550;12.138;2023-11-19T09:52:17;0.15;;;0.13;;
12181;SDS011;6154;51.550;12.138;2023-11-19T09:54:45;0.30;;;0.30;;
12181;SDS011;6154;51.550;12.138;2023-11-19T09:57:13;0.60;;;0.28;;
12181;SDS011;6154;51.550;12.138;2023-11-19T09:59:44;3.83;;;0.37;;
12181;SDS011;6154;51.550;12.138;2023-11-19T10:02:13;2.03;;;0.43;;
12181;SDS011;6154;51.550;12.138;2023-11-19T10:04:42;0.80;;;0.55;;
12181;SDS011;6154;51.550;12.138;2023-11-19T10:07:15;0.60;;;0.60;;
12181;SDS011;6154;51.550;12.138;2023-11-19T10:09:43;0.30;;;0.30;;
12181;SDS011;6154;51.550;12.138;2023-11-19T10:12:13;0.35;;;0.20;;
12181;SDS011;6154;51.550;12.138;2023-11-19T10:14:41;0.55;;;0.30;;
12181;SDS011;6154;51.550;12.138;2023-11-19T10:17:10;0.88;;;0.37;;
12181;SDS011;6154;51.550;12.138;2023-11-19T10:19:39;0.20;;;0.20;;
12181;SDS011;6154;51.550;12.138;2023-11-19T10:22:08;1.08;;;0.35;;
12181;SDS011;6154;51.550;12.138;2023-11-19T10:24:37;0.55;;;0.43;;
12181;SDS011;6154;51.550;12.138;2023-11-19T10:27:14;0.35;;;0.25;;
12181;SDS011;6154;51.550;12.138;2023-11-19T10:29:43;1.30;;;0.35;;
12181;SDS011;6154;51.550;12.138;2023-11-19T10:32:13;2.67;;;0.40;;
12181;SDS011;6154;51.550;12.138;2023-11-19T10:35:01;3.20;;;0.40;;
12181;SDS011;6154;51.550;12.138;2023-11-19T10:37:32;0.70;;;0.37;;
12181;SDS011;6154;51.550;12.138;2023-11-19T10:40:06;1.12;;;0.47;;
12181;SDS011;6154;51.550;12.138;2023-11-19T10:42:37;0.98;;;0.45;;
12181;SDS011;6154;51.550;12.138;2023-11-19T10:45:05;0.60;;;0.40;;
12181;SDS011;6154;51.550;12.138;2023-11-19T10:47:51;1.40;;;0.40;;
12181;SDS011;6154;51.550;12.138;2023-11-19T10:50:20;1.65;;;0.28;;
12181;SDS011;6154;51.550;12.138;2023-11-19T10:52:50;0.88;;;0.43;;
12181;SDS011;6154;51.550;12.138;2023-11-19T10:55:26;1.58;;;0.40;;
12181;SDS011;6154;51.550;12.138;2023-11-19T10:57:59;0.40;;;0.30;;
12181;SDS011;6154;51.550;12.138;2023-11-19T11:00:29;1.40;;;0.57;;
12181;SDS011;6154;51.550;12.138;2023-11-19T11:03:00;0.40;;;0.40;;
12181;SDS011;6154;51.550;12.138;2023-11-19T11:05:30;1.23;;;0.40;;
12181;SDS011;6154;51.550;12.138;2023-11-19T11:08:00;3.83;;;0.80;;
12181;SDS011;6154;51.550;12.138;2023-11-19T11:10:32;2.42;;;0.55;;
12181;SDS011;6154;51.550;12.138;2023-11-19T11:13:23;0.80;;;0.60;;
12181;SDS011;6154;51.550;12.138;2023-11-19T11:15:55;3.00;;;1.00;;
12181;SDS011;6154;51.550;12.138;2023-11-19T11:18:24;5.50;;;1.15;;
12181;SDS011;6154;51.550;12.138;2023-11-19T11:20:54;6.10;;;0.90;;
12181;SDS011;6154;51.550;12.138;2023-11-19T11:23:37;3.08;;;0.95;;
12181;SDS011;6154;51.550;12.138;2023-11-19T11:26:49;4.18;;;0.95;;
12181;SDS011;6154;51.550;12.138;2023-11-19T11:29:29;4.37;;;0.98;;
12181;SDS011;6154;51.550;12.138;2023-11-19T11:32:08;2.17;;;0.82;;
12181;SDS011;6154;51.550;12.138;2023-11-19T11:34:53;5.30;;;1.50;;
12181;SDS011;6154;51.550;12.138;2023-11-19T11:37:32;1.58;;;0.98;;
12181;SDS011;6154;51.550;12.138;2023-11-19T11:40:05;6.50;;;1.02;;
12181;SDS011;6154;51.550;12.138;2023-11-19T11:42:39;2.53;;;0.80;;
12181;SDS011;6154;51.550;12.138;2023-11-19T11:45:08;9.63;;;1.10;;
12181;SDS011;6154;51.550;12.138;2023-11-19T11:50:33;3.75;;;1.08;;
12181;SDS011;6154;51.550;12.138;2023-11-19T11:53:13;6.10;;;2.03;;
12181;SDS011;6154;51.550;12.138;2023-11-19T11:55:54;6.15;;;1.40;;
12181;SDS011;6154;51.550;12.138;2023-11-19T11:58:28;4.25;;;1.37;;
12181;SDS011;6154;51.550;12.138;2023-11-19T12:01:02;5.05;;;1.30;;
12181;SDS011;6154;51.550;12.138;2023-11-19T12:03:33;5.82;;;1.10;;
12181;SDS011;6154;51.550;12.138;2023-11-19T12:06:02;2.60;;;1.27;;
12181;SDS011;6154;51.550;12.138;2023-11-19T12:08:30;2.25;;;0.90;;
12181;SDS011;6154;51.550;12.138;2023-11-19T12:11:19;4.80;;;1.52;;
12181;SDS011;6154;51.550;12.138;2023-11-19T12:13:54;3.17;;;0.73;;
12181;SDS011;6154;51.550;12.138;2023-11-19T12:16:26;6.10;;;1.20;;
12181;SDS011;6154;51.550;12.138;2023-11-19T12:18:56;7.40;;;1.08;;
12181;SDS011;6154;51.550;12.138;2023-11-19T12:21:27;9.25;;;1.33;;
12181;SDS011;6154;51.550;12.138;2023-11-19T12:23:57;6.18;;;1.17;;
12181;SDS011;6154;51.550;12.138;2023-11-19T12:26:31;5.43;;;1.30;;
12181;SDS011;6154;51.550;12.138;2023-11-19T12:29:05;3.97;;;1.00;;
12181;SDS011;6154;51.550;12.138;2023-11-19T12:31:35;7.12;;;0.98;;
12181;SDS011;6154;51.550;12.138;2023-11-19T12:34:08;4.10;;;0.98;;
12181;SDS011;6154;51.550;12.138;2023-11-19T12:36:40;5.97;;;1.95;;
12181;SDS011;6154;51.550;12.138;2023-11-19T12:39:09;5.35;;;1.23;;
12181;SDS011;6154;51.550;12.138;2023-11-19T12:41:50;4.25;;;1.23;;
12181;SDS011;6154;51.550;12.138;2023-11-19T12:44:21;5.28;;;0.95;;
12181;SDS011;6154;51.550;12.138;2023-11-19T12:46:59;5.05;;;1.20;;
12181;SDS011;6154;51.550;12.138;2023-11-19T12:49:29;6.45;;;1.20;;
12181;SDS011;6154;51.550;12.138;2023-11-19T12:51:57;3.92;;;1.02;;
12181;SDS011;6154;51.550;12.138;2023-11-19T12:54:33;4.78;;;1.00;;
12181;SDS011;6154;51.550;12.138;2023-11-19T12:57:02;3.67;;;1.23;;
12181;SDS011;6154;51.550;12.138;2023-11-19T12:59:33;5.20;;;1.65;;
12181;SDS011;6154;51.550;12.138;2023-11-19T13:02:01;4.60;;;0.77;;
12181;SDS011;6154;51.550;12.138;2023-11-19T13:04:32;3.67;;;0.90;;
12181;SDS011;6154;51.550;12.138;2023-11-19T13:07:01;3.33;;;1.00;;
12181;SDS011;6154;51.550;12.138;2023-11-19T13:09:32;6.25;;;1.48;;
12181;SDS011;6154;51.550;12.138;2023-11-19T13:12:11;11.20;;;1.75;;
12181;SDS011;6154;51.550;12.138;2023-11-19T13:14:42;5.25;;;1.52;;
12181;SDS011;6154;51.550;12.138;2023-11-19T13:17:12;7.35;;;1.23;;
12181;SDS011;6154;51.550;12.138;2023-11-19T13:19:41;6.75;;;1.52;;
12181;SDS011;6154;51.550;12.138;2023-11-19T13:22:09;2.60;;;1.10;;
12181;SDS011;6154;51.550;12.138;2023-11-19T13:24:38;6.57;;;1.30;;
12181;SDS011;6154;51.550;12.138;2023-11-19T13:27:07;2.75;;;0.60;;
12181;SDS011;6154;51.550;12.138;2023-11-19T13:29:35;2.95;;;0.82;;
12181;SDS011;6154;51.550;12.138;2023-11-19T13:32:06;5.85;;;0.77;;
12181;SDS011;6154;51.550;12.138;2023-11-19T13:34:35;5.05;;;1.20;;
12181;SDS011;6154;51.550;12.138;2023-11-19T13:37:03;3.37;;;1.25;;
12181;SDS011;6154;51.550;12.138;2023-11-19T13:39:31;4.50;;;1.10;;
12181;SDS011;6154;51.550;12.138;2023-11-19T13:42:00;6.43;;;1.08;;
12181;SDS011;6154;51.550;12.138;2023-11-19T13:44:31;3.80;;;0.85;;
12181;SDS011;6154;51.550;12.138;2023-11-19T13:46:59;5.65;;;0.90;;
12181;SDS011;6154;51.550;12.138;2023-11-19T13:49:29;3.80;;;1.10;;
12181;SDS011;6154;51.550;12.138;2023-11-19T13:51:57;5.37;;;1.12;;
12181;SDS011;6154;51.550;12.138;2023-11-19T13:54:25;8.38;;;1.60;;
12181;SDS011;6154;51.550;12.138;2023-11-19T13:56:54;9.77;;;1.33;;
12181;SDS011;6154;51.550;12.138;2023-11-19T13:59:24;9.55;;;1.40;;
12181;SDS011;6154;51.550;12.138;2023-11-19T14:01:53;2.97;;;0.98;;
12181;SDS011;6154;51.550;12.138;2023-11-19T14:04:21;9.70;;;1.05;;
12181;SDS011;6154;51.550;12.138;2023-11-19T14:06:51;8.18;;;0.90;;
12181;SDS011;6154;51.550;12.138;2023-11-19T14:09:22;10.45;;;1.40;;
12181;SDS011;6154;51.550;12.138;2023-11-19T14:11:50;5.05;;;1.17;;
12181;SDS011;6154;51.550;12.138;2023-11-19T14:14:18;5.97;;;0.62;;
12181;SDS011;6154;51.550;12.138;2023-11-19T14:16:46;7.43;;;1.10;;
12181;SDS011;6154;51.550;12.138;2023-11-19T14:19:15;6.62;;;1.10;;
12181;SDS011;6154;51.550;12.138;2023-11-19T14:21:43;7.35;;;1.35;;
12181;SDS011;6154;51.550;12.138;2023-11-19T14:24:13;4.57;;;1.15;;
12181;SDS011;6154;51.550;12.138;2023-11-19T14:26:41;7.57;;;1.42;;
12181;SDS011;6154;51.550;12.138;2023-11-19T14:29:09;3.12;;;1.25;;
12181;SDS011;6154;51.550;12.138;2023-11-19T14:31:37;3.78;;;0.90;;
12181;SDS011;6154;51.550;12.138;2023-11-19T14:34:07;4.65;;;1.00;;
12181;SDS011;6154;51.550;12.138;2023-11-19T14:36:35;7.68;;;1.37;;
12181;SDS011;6154;51.550;12.138;2023-11-19T14:39:04;5.72;;;1.17;;
12181;SDS011;6154;51.550;12.138;2023-11-19T14:41:35;6.65;;;1.52;;
12181;SDS011;6154;51.550;12.138;2023-11-19T14:44:04;5.95;;;0.85;;
12181;SDS011;6154;51.550;12.138;2023-11-19T14:46:33;8.35;;;0.77;;
12181;SDS011;6154;51.550;12.138;2023-11-19T14:49:04;3.22;;;0.75;;
12181;SDS011;6154;51.550;12.138;2023-11-19T14:51:35;4.97;;;0.90;;
12181;SDS011;6154;51.550;12.138;2023-11-19T14:54:03;2.15;;;1.08;;
12181;SDS011;6154;51.550;12.138;2023-11-19T14:56:37;5.68;;;1.52;;
12181;SDS011;6154;51.550;12.138;2023-11-19T14:59:06;9.63;;;1.37;;
12181;SDS011;6154;51.550;12.138;2023-11-19T15:01:35;9.32;;;1.10;;
12181;SDS011;6154;51.550;12.138;2023-11-19T15:04:04;4.18;;;1.00;;
12181;SDS011;6154;51.550;12.138;2023-11-19T15:06:33;7.37;;;1.27;;
12181;SDS011;6154;51.550;12.138;2023-11-19T15:09:02;5.70;;;1.20;;